createdAt,value
2018-07-26T00:01:08.031Z,98215.69
2018-07-26T00:03:36.881Z,98220.62
2018-07-26T00:06:05.748Z,98223.39
2018-07-26T00:08:34.671Z,98223.59
2018-07-26T00:11:03.573Z,98220.16
2018-07-26T00:13:32.455Z,98219.20
2018-07-26T00:16:01.490Z,98232.48
2018-07-26T00:18:30.407Z,98227.88
2018-07-26T00:20:59.309Z,98218.45
2018-07-26T00:23:28.217Z,98226.22
2018-07-26T00:25:57.048Z,98227.41
2018-07-26T00:28:25.845Z,98230.58
2018-07-26T00:30:54.714Z,98230.58
2018-07-26T00:33:23.726Z,98235.66
2018-07-26T00:35:52.584Z,98240.37
2018-07-26T00:38:21.452Z,98242.14
2018-07-26T00:40:50.306Z,98235.20
2018-07-26T00:43:19.191Z,98235.02
2018-07-26T00:45:48.130Z,98239.20
2018-07-26T00:48:17.166Z,98232.09
2018-07-26T00:50:46.024Z,98232.67
2018-07-26T00:53:14.888Z,98230.23
2018-07-26T00:55:43.731Z,98230.56
2018-07-26T00:58:12.672Z,98228.64
2018-07-26T01:00:41.585Z,98228.60
2018-07-26T01:03:10.494Z,98232.16
2018-07-26T01:05:39.377Z,98228.34
2018-07-26T01:08:08.293Z,98232.38
2018-07-26T01:10:37.206Z,98232.91
2018-07-26T01:13:06.169Z,98224.15
2018-07-26T01:15:35.153Z,98234.81
2018-07-26T01:18:04.068Z,98230.16
2018-07-26T01:20:33.002Z,98232.64
2018-07-26T01:23:01.938Z,98236.19
2018-07-26T01:25:30.897Z,98240.14
2018-07-26T01:27:59.885Z,98232.36
2018-07-26T01:30:28.856Z,98235.95
2018-07-26T01:32:57.741Z,98236.56
2018-07-26T01:35:26.632Z,98233.28
2018-07-26T01:37:55.630Z,98233.30
2018-07-26T01:40:24.624Z,98236.89
2018-07-26T01:43:04.544Z,98234.72
2018-07-26T01:45:33.386Z,98234.44
2018-07-26T01:48:02.237Z,98232.00
2018-07-26T01:50:31.135Z,98233.34
2018-07-26T01:53:00.073Z,98233.60
2018-07-26T01:55:29.017Z,98234.73
2018-07-26T01:57:57.908Z,98227.59
2018-07-26T02:00:26.758Z,98229.23
2018-07-26T02:02:55.592Z,98230.34
2018-07-26T02:05:24.483Z,98230.06
2018-07-26T02:07:53.332Z,98228.14
2018-07-26T02:10:22.184Z,98231.17
2018-07-26T02:12:51.089Z,98226.80
2018-07-26T02:15:19.938Z,98223.25
2018-07-26T02:17:48.776Z,98224.87
2018-07-26T02:20:17.662Z,98225.14
2018-07-26T02:22:46.562Z,98223.80
2018-07-26T02:25:15.449Z,98224.34
2018-07-26T02:27:44.401Z,98222.42
2018-07-26T02:30:13.256Z,98224.33
2018-07-26T02:32:42.078Z,98231.16
2018-07-26T02:35:10.969Z,98226.52
2018-07-26T02:37:39.962Z,98227.91
2018-07-26T02:40:08.804Z,98229.54
2018-07-26T02:42:37.600Z,98226.52
2018-07-26T02:45:06.474Z,98224.60
2018-07-26T02:47:35.378Z,98213.39
2018-07-26T02:50:04.303Z,98211.48
2018-07-26T02:52:33.126Z,98216.68
2018-07-26T02:55:01.934Z,98217.76
2018-07-26T02:57:30.812Z,98217.23
2018-07-26T02:59:59.604Z,98225.16
2018-07-26T03:02:28.412Z,98223.20
2018-07-26T03:04:57.279Z,98224.28
2018-07-26T03:07:26.086Z,98235.02
2018-07-26T03:09:54.932Z,98236.94
2018-07-26T03:12:23.742Z,98242.39
2018-07-26T03:14:52.641Z,98236.36
2018-07-26T03:17:21.521Z,98238.02
2018-07-26T03:19:51.091Z,98236.64
2018-07-26T03:22:19.877Z,98248.96
2018-07-26T03:24:48.685Z,98251.14
2018-07-26T03:27:17.540Z,98244.57
2018-07-26T03:29:46.522Z,98249.52
2018-07-26T03:32:15.537Z,98250.30
2018-07-26T03:34:44.477Z,98253.30
2018-07-26T03:37:13.325Z,98255.21
2018-07-26T03:39:42.238Z,98254.41
2018-07-26T03:42:11.167Z,98248.93
2018-07-26T03:44:40.078Z,98255.53
2018-07-26T03:47:08.925Z,98257.16
2018-07-26T03:49:37.886Z,98253.33
2018-07-26T03:52:06.925Z,98253.05
2018-07-26T03:54:35.936Z,98262.63
2018-07-26T03:57:04.938Z,98262.91
2018-07-26T03:59:33.877Z,98271.13
2018-07-26T04:02:02.747Z,98270.01
2018-07-26T04:04:31.641Z,98273.30
2018-07-26T04:07:02.883Z,98271.63
2018-07-26T04:09:31.874Z,98280.69
2018-07-26T04:12:00.801Z,98278.47
2018-07-26T04:14:29.704Z,98282.15
2018-07-26T04:16:58.553Z,98297.60
2018-07-26T04:19:27.454Z,98297.06
2018-07-26T04:21:56.574Z,98294.55
2018-07-26T04:24:25.497Z,98300.08
2018-07-26T04:26:54.364Z,98302.83
2018-07-26T04:29:23.208Z,98303.41
2018-07-26T04:31:52.146Z,98310.25
2018-07-26T04:34:21.005Z,98307.80
2018-07-26T04:36:49.866Z,98312.73
2018-07-26T04:39:18.680Z,98309.97
2018-07-26T04:41:47.609Z,98313.02
2018-07-26T04:44:16.439Z,98308.89
2018-07-26T04:46:45.479Z,98309.41
2018-07-26T04:49:14.412Z,98319.28
2018-07-26T04:51:43.232Z,98320.41
2018-07-26T04:54:12.066Z,98320.09
2018-07-26T04:56:41.020Z,98318.19
2018-07-26T04:59:09.809Z,98315.75
2018-07-26T05:01:38.690Z,98314.36
2018-07-26T05:04:07.567Z,98324.77
2018-07-26T05:06:36.370Z,98329.67
2018-07-26T05:09:07.202Z,98328.31
2018-07-26T05:11:36.056Z,98327.19
2018-07-26T05:14:04.902Z,98334.82
2018-07-26T05:16:33.896Z,98336.72
2018-07-26T05:19:02.890Z,98339.22
2018-07-26T05:21:31.699Z,98344.45
2018-07-26T05:24:00.809Z,98347.47
2018-07-26T05:26:29.741Z,98351.87
2018-07-26T05:28:58.676Z,98358.42
2018-07-26T05:31:27.598Z,98356.75
2018-07-26T05:33:56.483Z,98364.98
2018-07-26T05:36:25.365Z,98366.86
2018-07-26T05:38:54.923Z,98365.77
2018-07-26T05:41:23.969Z,98364.97
2018-07-26T05:43:52.777Z,98374.27
2018-07-26T05:46:21.724Z,98367.47
2018-07-26T05:48:50.645Z,98366.89
2018-07-26T05:51:19.468Z,98365.67
2018-07-26T05:53:48.292Z,98373.38
2018-07-26T05:56:17.242Z,98368.77
2018-07-26T05:58:46.181Z,98378.64
2018-07-26T06:01:15.079Z,98372.59
2018-07-26T06:03:44.021Z,98372.51
2018-07-26T06:06:13.041Z,98379.22
2018-07-26T06:08:41.996Z,98380.48
2018-07-26T06:11:10.905Z,98375.73
2018-07-26T06:13:39.778Z,98369.75
2018-07-26T06:16:08.671Z,98373.27
2018-07-26T06:18:38.340Z,98365.07
2018-07-26T06:21:07.404Z,98376.83
2018-07-26T06:23:36.206Z,98376.06
2018-07-26T06:26:05.298Z,98384.87
2018-07-26T06:28:34.216Z,98388.98
2018-07-26T06:31:03.104Z,98383.42
2018-07-26T06:33:32.117Z,98386.55
2018-07-26T06:36:00.979Z,98381.28
2018-07-26T06:38:31.214Z,98379.88
2018-07-26T06:41:01.152Z,98376.59
2018-07-26T06:43:30.052Z,98373.81
2018-07-26T06:45:58.972Z,98372.98
2018-07-26T06:48:27.766Z,98370.50
2018-07-26T06:50:56.578Z,98372.09
2018-07-26T06:53:25.363Z,98370.50
2018-07-26T06:55:54.325Z,98371.66
2018-07-26T06:58:23.092Z,98374.68
2018-07-26T07:00:52.042Z,98377.24
2018-07-26T07:03:20.969Z,98378.59
2018-07-26T07:05:49.850Z,98382.11
2018-07-26T07:08:18.737Z,98384.63
2018-07-26T07:10:47.683Z,98386.36
2018-07-26T07:13:16.628Z,98397.13
2018-07-26T07:15:45.422Z,98392.19
2018-07-26T07:18:14.296Z,98393.08
2018-07-26T07:20:43.096Z,98387.02
2018-07-26T07:23:11.917Z,98386.59
2018-07-26T07:25:40.793Z,98382.72
2018-07-26T07:28:09.606Z,98382.84
2018-07-26T07:30:38.384Z,98382.44
2018-07-26T07:33:07.236Z,98391.97
2018-07-26T07:35:36.001Z,98388.81
2018-07-26T07:38:04.867Z,98393.77
2018-07-26T07:40:33.762Z,98393.58
2018-07-26T07:43:02.553Z,98391.04
2018-07-26T07:45:31.334Z,98386.63
2018-07-26T07:48:00.116Z,98395.33
2018-07-26T07:50:29.029Z,98395.30
2018-07-26T07:52:57.950Z,98398.50
2018-07-26T07:55:26.767Z,98395.66
2018-07-26T07:57:55.580Z,98403.89
2018-07-26T08:00:24.446Z,98397.91
2018-07-26T08:02:53.365Z,98389.70
2018-07-26T08:05:22.189Z,98396.52
2018-07-26T08:07:50.991Z,98398.02
2018-07-26T08:10:19.877Z,98396.30
2018-07-26T08:12:48.681Z,98399.71
2018-07-26T08:15:17.550Z,98396.87
2018-07-26T08:17:46.422Z,98395.72
2018-07-26T08:20:15.352Z,98393.25
2018-07-26T08:22:44.166Z,98397.69
2018-07-26T08:25:13.013Z,98394.39
2018-07-26T08:27:41.823Z,98399.45
2018-07-26T08:30:11.728Z,98397.44
2018-07-26T08:32:40.553Z,98390.86
2018-07-26T08:35:09.499Z,98389.42
2018-07-26T08:37:38.261Z,98388.48
2018-07-26T08:40:07.393Z,98389.45
2018-07-26T08:42:36.304Z,98392.44
2018-07-26T08:45:05.153Z,98388.27
2018-07-26T08:47:33.980Z,98390.36
2018-07-26T08:50:02.781Z,98387.02
2018-07-26T08:52:31.578Z,98384.70
2018-07-26T08:55:00.447Z,98383.69
2018-07-26T08:57:29.294Z,98367.85
2018-07-26T08:59:58.064Z,98372.85
2018-07-26T09:02:26.962Z,98375.38
2018-07-26T09:04:55.775Z,98373.84
2018-07-26T09:07:24.614Z,98376.59
2018-07-26T09:09:53.472Z,98378.63
2018-07-26T09:12:22.405Z,98377.06
2018-07-26T09:14:51.165Z,98374.99
2018-07-26T09:17:19.980Z,98379.08
2018-07-26T09:19:48.850Z,98375.13
2018-07-26T09:22:17.634Z,98378.04
2018-07-26T09:24:46.613Z,98363.45
2018-07-26T09:27:15.390Z,98360.22
2018-07-26T09:29:44.213Z,98355.94
2018-07-26T09:32:13.774Z,98356.90
2018-07-26T09:34:42.571Z,98346.82
2018-07-26T09:37:11.414Z,98355.86
2018-07-26T09:39:40.330Z,98355.31
2018-07-26T09:42:09.084Z,98358.09
2018-07-26T09:44:37.903Z,98358.22
2018-07-26T09:47:06.739Z,98349.40
2018-07-26T09:49:35.521Z,98347.60
2018-07-26T09:52:04.357Z,98343.22
2018-07-26T09:54:33.184Z,98323.42
2018-07-26T09:57:02.023Z,98332.19
2018-07-26T09:59:30.854Z,98333.48
2018-07-26T10:01:59.696Z,98324.81
2018-07-26T10:04:28.569Z,98328.75
2018-07-26T10:06:57.394Z,98328.18
2018-07-26T10:09:26.277Z,98324.13
2018-07-26T10:11:55.187Z,98329.36
2018-07-26T10:14:24.001Z,98328.98
2018-07-26T10:16:52.855Z,98324.41
2018-07-26T10:19:21.750Z,98324.69
2018-07-26T10:21:50.564Z,98321.17
2018-07-26T10:24:19.550Z,98326.36
2018-07-26T10:26:48.334Z,98323.33
2018-07-26T10:29:17.093Z,98317.17
2018-07-26T10:31:46.017Z,98319.93
2018-07-26T10:34:14.796Z,98318.26
2018-07-26T10:36:43.563Z,98316.33
2018-07-26T10:39:12.817Z,98310.06
2018-07-26T10:41:41.678Z,98311.35
2018-07-26T10:44:10.553Z,98306.59
2018-07-26T10:46:39.526Z,98308.45
2018-07-26T10:49:08.384Z,98307.25
2018-07-26T10:51:37.300Z,98305.91
2018-07-26T10:54:06.300Z,98302.55
2018-07-26T10:56:35.192Z,98299.50
2018-07-26T10:59:04.025Z,98299.67
2018-07-26T11:01:32.882Z,98293.54
2018-07-26T11:04:01.765Z,98289.80
2018-07-26T11:06:30.634Z,98291.20
2018-07-26T11:08:59.506Z,98290.39
2018-07-26T11:11:28.313Z,98283.84
2018-07-26T11:13:57.146Z,98279.45
2018-07-26T11:16:26.043Z,98277.83
2018-07-26T11:18:54.985Z,98276.02
2018-07-26T11:21:23.779Z,98275.16
2018-07-26T11:23:52.659Z,98274.18
2018-07-26T11:26:21.503Z,98278.87
2018-07-26T11:28:50.262Z,98282.09
2018-07-26T11:31:19.268Z,98277.77
2018-07-26T11:33:48.063Z,98278.98
2018-07-26T11:36:16.951Z,98275.83
2018-07-26T11:38:45.909Z,98273.77
2018-07-26T11:41:14.943Z,98268.30
2018-07-26T11:43:43.776Z,98277.02
2018-07-26T11:46:12.732Z,98274.92
2018-07-26T11:48:41.893Z,98277.05
2018-07-26T11:51:10.687Z,98276.33
2018-07-26T11:53:39.626Z,98275.98
2018-07-26T11:56:08.529Z,98269.59
2018-07-26T11:58:37.417Z,98275.62
2018-07-26T12:01:06.393Z,98275.73
2018-07-26T12:03:35.212Z,98275.27
2018-07-26T12:06:04.156Z,98274.62
2018-07-26T12:08:33.038Z,98267.41
2018-07-26T12:11:01.921Z,98265.03
2018-07-26T12:13:30.879Z,98262.41
2018-07-26T12:15:59.739Z,98259.94
2018-07-26T12:18:28.573Z,98251.72
2018-07-26T12:20:57.503Z,98247.08
2018-07-26T12:23:26.411Z,98247.84
2018-07-26T12:25:55.372Z,98239.98
2018-07-26T12:28:24.237Z,98243.48
2018-07-26T12:30:53.173Z,98235.19
2018-07-26T12:33:22.090Z,98234.84
2018-07-26T12:35:50.992Z,98239.60
2018-07-26T12:38:19.836Z,98238.73
2018-07-26T12:40:48.702Z,98240.83
2018-07-26T12:43:17.541Z,98248.95
2018-07-26T12:45:46.439Z,98246.05
2018-07-26T12:48:15.264Z,98246.73
2018-07-26T12:50:44.384Z,98235.03
2018-07-26T12:53:13.313Z,98247.30
2018-07-26T12:55:42.166Z,98236.78
2018-07-26T12:58:11.013Z,98238.80
2018-07-26T13:00:40.009Z,98234.95
2018-07-26T13:03:08.960Z,98237.91
2018-07-26T13:05:37.936Z,98234.94
2018-07-26T13:08:06.904Z,98240.91
2018-07-26T13:10:36.670Z,98238.02
2018-07-26T13:13:05.728Z,98247.44
2018-07-26T13:15:34.707Z,98240.50
2018-07-26T13:18:03.571Z,98242.78
2018-07-26T13:20:32.616Z,98238.64
2018-07-26T13:23:01.603Z,98238.28
2018-07-26T13:25:30.542Z,98241.15
2018-07-26T13:27:59.436Z,98232.56
2018-07-26T13:30:28.316Z,98237.68
2018-07-26T13:32:57.254Z,98229.28
2018-07-26T13:35:26.271Z,98233.06
2018-07-26T13:37:55.161Z,98229.47
2018-07-26T13:40:24.092Z,98232.16
2018-07-26T13:42:53.103Z,98235.45
2018-07-26T13:45:22.020Z,98242.60
2018-07-26T13:47:50.929Z,98234.95
2018-07-26T13:50:19.723Z,98237.19
2018-07-26T13:52:48.592Z,98229.70
2018-07-26T13:55:17.503Z,98227.84
2018-07-26T13:57:46.414Z,98231.63
2018-07-26T14:00:15.402Z,98224.28
2018-07-26T14:02:44.558Z,98224.92
2018-07-26T14:05:13.504Z,98220.89
2018-07-26T14:07:42.368Z,98219.23
2018-07-26T14:10:11.189Z,98223.88
2018-07-26T14:12:40.243Z,98216.83
2018-07-26T14:15:10.597Z,98218.00
2018-07-26T14:17:39.968Z,98221.05
2018-07-26T14:20:10.820Z,98223.01
2018-07-26T14:22:40.143Z,98225.97
2018-07-26T14:25:09.086Z,98231.05
2018-07-26T14:27:38.028Z,98239.48
2018-07-26T14:30:08.176Z,98247.00
2018-07-26T14:32:37.073Z,98256.86
2018-07-26T14:35:06.175Z,98255.75
2018-07-26T14:37:35.148Z,98269.59
2018-07-26T14:40:04.088Z,98274.75
2018-07-26T14:42:32.910Z,98267.86
2018-07-26T14:45:01.811Z,98262.34
2018-07-26T14:47:30.657Z,98262.67
2018-07-26T14:49:59.545Z,98270.97
2018-07-26T14:52:28.486Z,98271.81
2018-07-26T14:54:57.311Z,98283.30
2018-07-26T14:57:26.171Z,98282.67
2018-07-26T14:59:55.102Z,98282.97
2018-07-26T15:02:24.014Z,98276.27
2018-07-26T15:04:52.835Z,98282.89
2018-07-26T15:07:21.730Z,98288.97
2018-07-26T15:09:50.667Z,98286.98
2018-07-26T15:12:19.601Z,98302.75
2018-07-26T15:14:48.467Z,98296.06
2018-07-26T15:17:17.284Z,98295.25
2018-07-26T15:19:46.138Z,98293.97
2018-07-26T15:22:15.014Z,98297.45
2018-07-26T15:24:43.860Z,98304.42
2018-07-26T15:27:12.792Z,98304.28
2018-07-26T15:29:41.695Z,98307.86
2018-07-26T15:32:10.665Z,98298.88
2018-07-26T15:34:39.483Z,98311.99
2018-07-26T15:37:08.385Z,98316.70
2018-07-26T15:39:37.321Z,98312.12
2018-07-26T15:42:06.269Z,98316.02
2018-07-26T15:44:35.148Z,98320.15
2018-07-26T15:47:04.098Z,98320.31
2018-07-26T15:49:33.045Z,98317.05
2018-07-26T15:52:01.969Z,98315.00
2018-07-26T15:54:30.865Z,98323.29
2018-07-26T15:56:59.752Z,98327.23
2018-07-26T15:59:28.587Z,98328.09
2018-07-26T16:01:57.610Z,98323.02
2018-07-26T16:04:26.484Z,98328.53
2018-07-26T16:06:55.371Z,98331.53
2018-07-26T16:09:24.200Z,98334.23
2018-07-26T16:11:53.012Z,98352.33
2018-07-26T16:14:21.944Z,98354.48
2018-07-26T16:16:50.798Z,98366.27
2018-07-26T16:19:19.677Z,98370.33
2018-07-26T16:21:48.578Z,98362.84
2018-07-26T16:24:17.464Z,98366.17
2018-07-26T16:26:46.328Z,98371.80
2018-07-26T16:29:15.241Z,98369.97
2018-07-26T16:31:44.044Z,98365.97
2018-07-26T16:34:12.896Z,98380.02
2018-07-26T16:36:41.921Z,98376.11
2018-07-26T16:39:12.225Z,98374.00
2018-07-26T16:41:41.066Z,98374.61
2018-07-26T16:44:09.946Z,98385.28
2018-07-26T16:46:38.912Z,98381.27
2018-07-26T16:49:08.337Z,98377.56
2018-07-26T16:51:37.263Z,98381.36
2018-07-26T16:54:06.165Z,98376.86
2018-07-26T16:56:35.008Z,98371.86
2018-07-26T16:59:03.864Z,98373.38
2018-07-26T17:01:32.819Z,98379.91
2018-07-26T17:04:01.719Z,98380.42
2018-07-26T17:06:30.508Z,98386.63
2018-07-26T17:08:59.432Z,98386.51
2018-07-26T17:11:28.467Z,98388.55
2018-07-26T17:13:57.356Z,98383.70
2018-07-26T17:16:26.244Z,98388.13
2018-07-26T17:18:55.161Z,98389.34
2018-07-26T17:21:23.999Z,98384.16
2018-07-26T17:23:52.825Z,98383.70
2018-07-26T17:26:21.756Z,98392.50
2018-07-26T17:28:50.724Z,98386.36
2018-07-26T17:31:19.591Z,98388.16
2018-07-26T17:33:48.503Z,98393.48
2018-07-26T17:36:17.258Z,98390.70
2018-07-26T17:38:46.201Z,98390.45
2018-07-26T17:41:15.073Z,98395.05
2018-07-26T17:43:43.932Z,98410.31
2018-07-26T17:46:12.742Z,98410.39
2018-07-26T17:48:41.637Z,98413.91
2018-07-26T17:51:10.522Z,98420.94
2018-07-26T17:53:39.397Z,98420.12
2018-07-26T17:56:08.355Z,98419.69
2018-07-26T17:58:37.207Z,98417.59
2018-07-26T18:01:06.174Z,98422.67
2018-07-26T18:03:35.012Z,98425.91
2018-07-26T18:06:04.006Z,98429.80
2018-07-26T18:08:32.854Z,98428.38
2018-07-26T18:11:01.729Z,98425.78
2018-07-26T18:13:30.588Z,98431.13
2018-07-26T18:15:59.401Z,98434.84
2018-07-26T18:18:28.360Z,98440.36
2018-07-26T18:20:57.215Z,98442.34
2018-07-26T18:23:26.047Z,98454.56
2018-07-26T18:25:54.913Z,98454.02
2018-07-26T18:28:23.976Z,98454.58
2018-07-26T18:30:52.780Z,98465.20
2018-07-26T18:33:21.716Z,98462.52
2018-07-26T18:35:50.592Z,98462.34
2018-07-26T18:38:19.556Z,98463.98
2018-07-26T18:40:48.372Z,98470.77
2018-07-26T18:43:17.250Z,98476.55
2018-07-26T18:45:46.123Z,98474.66
2018-07-26T18:48:14.961Z,98471.27
2018-07-26T18:50:43.838Z,98473.68
2018-07-26T18:53:12.838Z,98471.00
2018-07-26T18:55:41.670Z,98467.89
2018-07-26T18:58:10.537Z,98473.48
2018-07-26T19:00:39.365Z,98469.94
2018-07-26T19:03:08.304Z,98470.16
2018-07-26T19:05:37.237Z,98478.95
2018-07-26T19:08:07.066Z,98472.47
2018-07-26T19:10:35.833Z,98477.12
2018-07-26T19:13:04.680Z,98477.75
2018-07-26T19:15:33.521Z,98473.34
2018-07-26T19:18:02.408Z,98464.17
2018-07-26T19:20:31.226Z,98472.44
2018-07-26T19:23:00.043Z,98470.77
2018-07-26T19:25:29.643Z,98472.20
2018-07-26T19:27:59.056Z,98477.98
2018-07-26T19:30:27.843Z,98475.24
2018-07-26T19:32:56.690Z,98480.44
2018-07-26T19:35:25.498Z,98476.61
2018-07-26T19:37:54.344Z,98477.98
2018-07-26T19:40:23.194Z,98477.22
2018-07-26T19:42:52.052Z,98478.04
2018-07-26T19:45:20.908Z,98479.41
2018-07-26T19:47:49.754Z,98479.98
2018-07-26T19:50:18.568Z,98482.44
2018-07-26T19:52:47.385Z,98485.17
2018-07-26T19:55:16.257Z,98486.28
2018-07-26T19:57:45.047Z,98491.42
2018-07-26T20:00:13.895Z,98492.28
2018-07-26T20:02:42.837Z,98498.55
2018-07-26T20:05:11.669Z,98501.03
2018-07-26T20:07:40.776Z,98500.22
2018-07-26T20:10:11.885Z,98509.00
2018-07-26T20:12:41.129Z,98505.66
2018-07-26T20:15:10.014Z,98501.30
2018-07-26T20:17:38.923Z,98504.30
2018-07-26T20:20:09.962Z,98506.80
2018-07-26T20:22:38.779Z,98505.39
2018-07-26T20:25:07.789Z,98506.47
2018-07-26T20:27:36.581Z,98501.28
2018-07-26T20:30:07.307Z,98495.25
2018-07-26T20:32:36.277Z,98501.83
2018-07-26T20:35:05.498Z,98499.34
2018-07-26T20:37:34.337Z,98497.95
2018-07-26T20:40:03.286Z,98497.58
2018-07-26T20:42:32.128Z,98503.43
2018-07-26T20:45:01.024Z,98502.38
2018-07-26T20:47:29.950Z,98506.95
2018-07-26T20:49:58.770Z,98502.89
2018-07-26T20:52:27.612Z,98499.83
2018-07-26T20:54:56.493Z,98505.88
2018-07-26T20:57:25.301Z,98508.06
2018-07-26T20:59:54.040Z,98505.55
2018-07-26T21:02:22.949Z,98507.59
2018-07-26T21:04:51.752Z,98509.25
2018-07-26T21:07:21.216Z,98510.06
2018-07-26T21:09:50.030Z,98508.72
2018-07-26T21:12:18.840Z,98509.81
2018-07-26T21:14:47.647Z,98510.08
2018-07-26T21:17:16.481Z,98502.97
2018-07-26T21:19:45.293Z,98510.39
2018-07-26T21:22:14.093Z,98508.98
2018-07-26T21:24:42.932Z,98500.52
2018-07-26T21:27:11.780Z,98501.92
2018-07-26T21:29:40.727Z,98502.73
2018-07-26T21:32:09.603Z,98495.33
2018-07-26T21:34:38.364Z,98499.44
2018-07-26T21:37:07.166Z,98497.19
2018-07-26T21:39:36.049Z,98497.77
2018-07-26T21:42:04.923Z,98499.09
2018-07-26T21:44:33.776Z,98498.55
2018-07-26T21:47:02.609Z,98496.11
2018-07-26T21:49:31.425Z,98498.81
2018-07-26T21:52:00.247Z,98500.72
2018-07-26T21:54:29.136Z,98498.53
2018-07-26T21:56:58.042Z,98495.21
2018-07-26T21:59:26.908Z,98492.97
2018-07-26T22:01:55.865Z,98494.31
2018-07-26T22:04:24.734Z,98497.52
2018-07-26T22:06:53.610Z,98488.89
2018-07-26T22:09:22.515Z,98491.66
2018-07-26T22:11:51.335Z,98484.89
2018-07-26T22:14:20.141Z,98486.19
2018-07-26T22:16:49.063Z,98490.23
2018-07-26T22:19:17.925Z,98489.64
2018-07-26T22:21:46.751Z,98495.56
2018-07-26T22:24:15.610Z,98500.81
2018-07-26T22:26:44.472Z,98496.08
2018-07-26T22:29:13.428Z,98500.58
2018-07-26T22:31:42.336Z,98505.24
2018-07-26T22:34:11.211Z,98505.66
2018-07-26T22:36:40.158Z,98509.17
2018-07-26T22:39:10.739Z,98503.66
2018-07-26T22:41:39.693Z,98499.00
2018-07-26T22:44:08.691Z,98502.13
2018-07-26T22:46:37.636Z,98504.04
2018-07-26T22:49:06.644Z,98508.41
2018-07-26T22:51:35.617Z,98507.87
2018-07-26T22:54:04.902Z,98505.94
2018-07-26T22:56:34.066Z,98502.38
2018-07-26T22:59:03.034Z,98502.92
2018-07-26T23:01:31.974Z,98501.39
2018-07-26T23:04:00.888Z,98517.33
2018-07-26T23:06:29.790Z,98515.84
2018-07-26T23:08:58.727Z,98518.33
2018-07-26T23:11:27.688Z,98530.66
2018-07-26T23:13:56.513Z,98519.44
2018-07-26T23:16:25.400Z,98521.33
2018-07-26T23:18:54.325Z,98513.69
2018-07-26T23:21:23.250Z,98518.31
2018-07-26T23:23:52.116Z,98514.99
2018-07-26T23:26:20.998Z,98508.41
2018-07-26T23:28:49.868Z,98508.99
2018-07-26T23:31:18.928Z,98511.48
2018-07-26T23:33:47.789Z,98507.94
2018-07-26T23:36:16.764Z,98522.22
2018-07-26T23:38:45.805Z,98530.46
2018-07-26T23:41:14.608Z,98527.95
2018-07-26T23:43:43.499Z,98518.62
2018-07-26T23:46:12.461Z,98513.45
2018-07-26T23:48:41.346Z,98520.27
2018-07-26T23:51:10.274Z,98518.08
2018-07-26T23:53:39.266Z,98518.34
2018-07-26T23:56:08.089Z,98522.41
2018-07-26T23:58:36.949Z,98526.81
